sensor_id;sensor_type;location;lat;lon;timestamp;P1;durP1;ratioP1;P2;durP2;ratioP2
62202;SDS011;48199;49.138;7.414;2022-08-30T00:00:42;14.27;;;6.45;;
62202;SDS011;48199;49.138;7.414;2022-08-30T00:03:27;11.05;;;5.70;;
62202;SDS011;48199;49.138;7.414;2022-08-30T00:05:53;11.70;;;5.70;;
62202;SDS011;48199;49.138;7.414;2022-08-30T00:08:19;18.55;;;7.43;;
62202;SDS011;48199;49.138;7.414;2022-08-30T00:10:45;12.45;;;6.07;;
62202;SDS011;48199;49.138;7.414;2022-08-30T00:13:11;13.57;;;6.38;;
62202;SDS011;48199;49.138;7.414;2022-08-30T00:15:40;14.63;;;6.50;;
62202;SDS011;48199;49.138;7.414;2022-08-30T00:18:06;11.43;;;5.93;;
62202;SDS011;48199;49.138;7.414;2022-08-30T00:20:34;13.25;;;6.20;;
62202;SDS011;48199;49.138;7.414;2022-08-30T00:23:00;15.30;;;6.47;;
62202;SDS011;48199;49.138;7.414;2022-08-30T00:25:27;15.02;;;6.68;;
62202;SDS011;48199;49.138;7.414;2022-08-30T00:27:52;12.40;;;5.93;;
62202;SDS011;48199;49.138;7.414;2022-08-30T00:30:18;12.57;;;5.40;;
62202;SDS011;48199;49.138;7.414;2022-08-30T00:32:44;14.65;;;6.18;;
62202;SDS011;48199;49.138;7.414;2022-08-30T00:35:11;14.68;;;6.50;;
62202;SDS011;48199;49.138;7.414;2022-08-30T00:37:39;16.33;;;6.00;;
62202;SDS011;48199;49.138;7.414;2022-08-30T00:40:04;12.32;;;6.65;;
62202;SDS011;48199;49.138;7.414;2022-08-30T00:42:31;16.48;;;6.35;;
62202;SDS011;48199;49.138;7.414;2022-08-30T00:44:58;11.02;;;6.05;;
62202;SDS011;48199;49.138;7.414;2022-08-30T00:47:24;14.82;;;5.35;;
62202;SDS011;48199;49.138;7.414;2022-08-30T00:49:50;17.42;;;5.68;;
62202;SDS011;48199;49.138;7.414;2022-08-30T00:52:19;8.65;;;5.63;;
62202;SDS011;48199;49.138;7.414;2022-08-30T00:54:47;12.70;;;5.85;;
62202;SDS011;48199;49.138;7.414;2022-08-30T00:57:15;11.60;;;5.93;;
62202;SDS011;48199;49.138;7.414;2022-08-30T00:59:42;14.68;;;6.00;;
62202;SDS011;48199;49.138;7.414;2022-08-30T01:02:10;16.60;;;5.93;;
62202;SDS011;48199;49.138;7.414;2022-08-30T01:04:36;9.93;;;5.40;;
62202;SDS011;48199;49.138;7.414;2022-08-30T01:07:04;9.25;;;5.18;;
62202;SDS011;48199;49.138;7.414;2022-08-30T01:09:32;13.65;;;5.80;;
62202;SDS011;48199;49.138;7.414;2022-08-30T01:11:57;8.75;;;5.45;;
62202;SDS011;48199;49.138;7.414;2022-08-30T01:14:23;16.33;;;5.40;;
62202;SDS011;48199;49.138;7.414;2022-08-30T01:16:48;10.18;;;5.57;;
62202;SDS011;48199;49.138;7.414;2022-08-30T01:19:27;13.30;;;5.90;;
62202;SDS011;48199;49.138;7.414;2022-08-30T01:22:26;15.07;;;5.90;;
62202;SDS011;48199;49.138;7.414;2022-08-30T01:27:22;15.18;;;5.78;;
62202;SDS011;48199;49.138;7.414;2022-08-30T01:29:50;10.88;;;5.50;;
62202;SDS011;48199;49.138;7.414;2022-08-30T01:32:17;14.05;;;4.82;;
62202;SDS011;48199;49.138;7.414;2022-08-30T01:34:45;14.07;;;5.60;;
62202;SDS011;48199;49.138;7.414;2022-08-30T01:37:14;15.65;;;6.65;;
62202;SDS011;48199;49.138;7.414;2022-08-30T01:39:48;14.57;;;5.38;;
62202;SDS011;48199;49.138;7.414;2022-08-30T01:42:14;10.88;;;5.72;;
62202;SDS011;48199;49.138;7.414;2022-08-30T01:44:42;11.40;;;6.13;;
62202;SDS011;48199;49.138;7.414;2022-08-30T01:47:09;12.90;;;5.93;;
62202;SDS011;48199;49.138;7.414;2022-08-30T01:49:34;10.52;;;5.60;;
62202;SDS011;48199;49.138;7.414;2022-08-30T01:51:59;8.52;;;4.95;;
62202;SDS011;48199;49.138;7.414;2022-08-30T01:54:25;11.43;;;5.15;;
62202;SDS011;48199;49.138;7.414;2022-08-30T01:56:50;13.25;;;5.88;;
62202;SDS011;48199;49.138;7.414;2022-08-30T01:59:16;9.10;;;5.20;;
62202;SDS011;48199;49.138;7.414;2022-08-30T02:01:41;8.95;;;5.30;;
62202;SDS011;48199;49.138;7.414;2022-08-30T02:04:07;11.07;;;5.18;;
62202;SDS011;48199;49.138;7.414;2022-08-30T02:06:34;12.45;;;5.25;;
62202;SDS011;48199;49.138;7.414;2022-08-30T02:09:01;10.68;;;5.50;;
62202;SDS011;48199;49.138;7.414;2022-08-30T02:11:26;8.57;;;5.28;;
62202;SDS011;48199;49.138;7.414;2022-08-30T02:13:52;13.18;;;6.00;;
62202;SDS011;48199;49.138;7.414;2022-08-30T02:16:18;10.18;;;5.45;;
62202;SDS011;48199;49.138;7.414;2022-08-30T02:18:46;12.57;;;6.30;;
62202;SDS011;48199;49.138;7.414;2022-08-30T02:21:13;12.85;;;5.80;;
62202;SDS011;48199;49.138;7.414;2022-08-30T02:23:39;16.92;;;5.80;;
62202;SDS011;48199;49.138;7.414;2022-08-30T02:26:05;13.07;;;5.85;;
62202;SDS011;48199;49.138;7.414;2022-08-30T02:28:30;11.20;;;5.40;;
62202;SDS011;48199;49.138;7.414;2022-08-30T02:30:56;11.82;;;5.40;;
62202;SDS011;48199;49.138;7.414;2022-08-30T02:33:21;16.42;;;5.63;;
62202;SDS011;48199;49.138;7.414;2022-08-30T02:35:47;10.63;;;5.40;;
62202;SDS011;48199;49.138;7.414;2022-08-30T02:38:12;8.95;;;5.03;;
62202;SDS011;48199;49.138;7.414;2022-08-30T02:40:38;10.90;;;5.38;;
62202;SDS011;48199;49.138;7.414;2022-08-30T02:43:03;18.40;;;7.15;;
62202;SDS011;48199;49.138;7.414;2022-08-30T02:45:29;13.73;;;5.53;;
62202;SDS011;48199;49.138;7.414;2022-08-30T02:47:54;13.43;;;5.70;;
62202;SDS011;48199;49.138;7.414;2022-08-30T02:50:23;11.55;;;5.78;;
62202;SDS011;48199;49.138;7.414;2022-08-30T02:52:49;8.93;;;4.88;;
62202;SDS011;48199;49.138;7.414;2022-08-30T02:55:15;15.50;;;5.22;;
62202;SDS011;48199;49.138;7.414;2022-08-30T02:57:41;15.93;;;5.65;;
62202;SDS011;48199;49.138;7.414;2022-08-30T03:00:08;12.77;;;5.43;;
62202;SDS011;48199;49.138;7.414;2022-08-30T03:02:37;9.30;;;5.60;;
62202;SDS011;48199;49.138;7.414;2022-08-30T03:05:02;9.65;;;5.07;;
62202;SDS011;48199;49.138;7.414;2022-08-30T03:07:29;10.95;;;5.47;;
62202;SDS011;48199;49.138;7.414;2022-08-30T03:09:55;10.77;;;5.03;;
62202;SDS011;48199;49.138;7.414;2022-08-30T03:12:20;11.93;;;5.35;;
62202;SDS011;48199;49.138;7.414;2022-08-30T03:14:45;12.95;;;5.43;;
62202;SDS011;48199;49.138;7.414;2022-08-30T03:17:12;11.73;;;5.60;;
62202;SDS011;48199;49.138;7.414;2022-08-30T03:19:37;15.80;;;5.28;;
62202;SDS011;48199;49.138;7.414;2022-08-30T03:22:03;10.93;;;5.45;;
62202;SDS011;48199;49.138;7.414;2022-08-30T03:24:30;14.93;;;5.78;;
62202;SDS011;48199;49.138;7.414;2022-08-30T03:26:56;9.35;;;5.10;;
62202;SDS011;48199;49.138;7.414;2022-08-30T03:29:21;12.88;;;5.53;;
62202;SDS011;48199;49.138;7.414;2022-08-30T03:31:47;12.00;;;5.40;;
62202;SDS011;48199;49.138;7.414;2022-08-30T03:34:13;10.63;;;5.07;;
62202;SDS011;48199;49.138;7.414;2022-08-30T03:36:38;9.65;;;5.05;;
62202;SDS011;48199;49.138;7.414;2022-08-30T03:39:04;12.77;;;5.10;;
62202;SDS011;48199;49.138;7.414;2022-08-30T03:41:30;9.88;;;5.03;;
62202;SDS011;48199;49.138;7.414;2022-08-30T03:43:56;10.15;;;5.75;;
62202;SDS011;48199;49.138;7.414;2022-08-30T03:46:22;14.45;;;5.75;;
62202;SDS011;48199;49.138;7.414;2022-08-30T03:48:47;15.65;;;5.47;;
62202;SDS011;48199;49.138;7.414;2022-08-30T03:51:13;9.63;;;5.18;;
62202;SDS011;48199;49.138;7.414;2022-08-30T03:53:38;10.30;;;5.18;;
62202;SDS011;48199;49.138;7.414;2022-08-30T03:56:04;10.07;;;5.55;;
62202;SDS011;48199;49.138;7.414;2022-08-30T03:58:29;12.93;;;6.25;;
62202;SDS011;48199;49.138;7.414;2022-08-30T04:00:55;15.63;;;5.22;;
62202;SDS011;48199;49.138;7.414;2022-08-30T04:03:20;13.27;;;5.55;;
62202;SDS011;48199;49.138;7.414;2022-08-30T04:05:50;14.48;;;5.78;;
62202;SDS011;48199;49.138;7.414;2022-08-30T04:08:19;11.45;;;5.28;;
62202;SDS011;48199;49.138;7.414;2022-08-30T04:10:45;10.30;;;5.18;;
62202;SDS011;48199;49.138;7.414;2022-08-30T04:13:11;13.45;;;5.25;;
62202;SDS011;48199;49.138;7.414;2022-08-30T04:15:40;10.30;;;5.07;;
62202;SDS011;48199;49.138;7.414;2022-08-30T04:18:05;12.02;;;5.70;;
62202;SDS011;48199;49.138;7.414;2022-08-30T04:20:31;13.23;;;5.15;;
62202;SDS011;48199;49.138;7.414;2022-08-30T04:22:56;14.00;;;5.88;;
62202;SDS011;48199;49.138;7.414;2022-08-30T04:25:22;10.82;;;6.45;;
62202;SDS011;48199;49.138;7.414;2022-08-30T04:27:48;11.13;;;5.05;;
62202;SDS011;48199;49.138;7.414;2022-08-30T04:30:14;7.97;;;5.25;;
62202;SDS011;48199;49.138;7.414;2022-08-30T04:32:40;8.63;;;4.95;;
62202;SDS011;48199;49.138;7.414;2022-08-30T04:35:06;10.90;;;5.13;;
62202;SDS011;48199;49.138;7.414;2022-08-30T04:37:31;10.70;;;5.30;;
62202;SDS011;48199;49.138;7.414;2022-08-30T04:39:57;13.13;;;5.43;;
62202;SDS011;48199;49.138;7.414;2022-08-30T04:42:26;12.65;;;5.13;;
62202;SDS011;48199;49.138;7.414;2022-08-30T04:44:55;11.30;;;5.25;;
62202;SDS011;48199;49.138;7.414;2022-08-30T04:47:21;11.20;;;4.85;;
62202;SDS011;48199;49.138;7.414;2022-08-30T04:49:46;10.35;;;5.47;;
62202;SDS011;48199;49.138;7.414;2022-08-30T04:52:11;10.10;;;5.45;;
62202;SDS011;48199;49.138;7.414;2022-08-30T04:54:37;11.25;;;5.88;;
62202;SDS011;48199;49.138;7.414;2022-08-30T04:57:04;14.38;;;6.07;;
62202;SDS011;48199;49.138;7.414;2022-08-30T04:59:30;18.95;;;5.93;;
62202;SDS011;48199;49.138;7.414;2022-08-30T05:01:55;11.38;;;5.18;;
62202;SDS011;48199;49.138;7.414;2022-08-30T05:04:21;10.70;;;5.28;;
62202;SDS011;48199;49.138;7.414;2022-08-30T05:06:46;15.75;;;5.25;;
62202;SDS011;48199;49.138;7.414;2022-08-30T05:09:13;16.13;;;6.05;;
62202;SDS011;48199;49.138;7.414;2022-08-30T05:11:38;7.88;;;4.85;;
62202;SDS011;48199;49.138;7.414;2022-08-30T05:14:04;9.20;;;5.13;;
62202;SDS011;48199;49.138;7.414;2022-08-30T05:16:29;10.85;;;5.60;;
62202;SDS011;48199;49.138;7.414;2022-08-30T05:18:55;10.60;;;4.75;;
62202;SDS011;48199;49.138;7.414;2022-08-30T05:21:22;11.57;;;5.07;;
62202;SDS011;48199;49.138;7.414;2022-08-30T05:23:52;10.80;;;4.97;;
62202;SDS011;48199;49.138;7.414;2022-08-30T05:26:24;8.77;;;5.30;;
62202;SDS011;48199;49.138;7.414;2022-08-30T05:28:52;7.32;;;4.65;;
62202;SDS011;48199;49.138;7.414;2022-08-30T05:31:23;11.55;;;5.55;;
62202;SDS011;48199;49.138;7.414;2022-08-30T05:33:50;8.88;;;4.57;;
62202;SDS011;48199;49.138;7.414;2022-08-30T05:36:17;12.05;;;5.20;;
62202;SDS011;48199;49.138;7.414;2022-08-30T05:38:45;6.00;;;4.22;;
62202;SDS011;48199;49.138;7.414;2022-08-30T05:41:11;11.88;;;4.35;;
62202;SDS011;48199;49.138;7.414;2022-08-30T05:43:36;13.10;;;4.57;;
62202;SDS011;48199;49.138;7.414;2022-08-30T05:46:04;9.00;;;3.80;;
62202;SDS011;48199;49.138;7.414;2022-08-30T05:48:31;12.93;;;4.45;;
62202;SDS011;48199;49.138;7.414;2022-08-30T05:51:05;11.52;;;4.20;;
62202;SDS011;48199;49.138;7.414;2022-08-30T05:53:35;14.55;;;4.78;;
62202;SDS011;48199;49.138;7.414;2022-08-30T05:56:02;7.63;;;4.05;;
62202;SDS011;48199;49.138;7.414;2022-08-30T05:58:29;8.43;;;3.88;;
62202;SDS011;48199;49.138;7.414;2022-08-30T06:00:55;6.10;;;3.53;;
62202;SDS011;48199;49.138;7.414;2022-08-30T06:03:21;10.48;;;4.25;;
62202;SDS011;48199;49.138;7.414;2022-08-30T06:05:47;10.95;;;4.38;;
62202;SDS011;48199;49.138;7.414;2022-08-30T06:08:12;7.90;;;4.10;;
62202;SDS011;48199;49.138;7.414;2022-08-30T06:10:38;10.88;;;3.60;;
62202;SDS011;48199;49.138;7.414;2022-08-30T06:13:03;9.45;;;3.50;;
62202;SDS011;48199;49.138;7.414;2022-08-30T06:15:28;9.35;;;3.92;;
62202;SDS011;48199;49.138;7.414;2022-08-30T06:17:54;7.95;;;4.10;;
62202;SDS011;48199;49.138;7.414;2022-08-30T06:20:20;8.27;;;3.90;;
62202;SDS011;48199;49.138;7.414;2022-08-30T06:22:45;10.05;;;3.88;;
62202;SDS011;48199;49.138;7.414;2022-08-30T06:25:11;11.07;;;4.57;;
62202;SDS011;48199;49.138;7.414;2022-08-30T06:27:37;9.07;;;3.58;;
62202;SDS011;48199;49.138;7.414;2022-08-30T06:30:03;9.07;;;3.80;;
62202;SDS011;48199;49.138;7.414;2022-08-30T06:32:32;13.38;;;4.38;;
62202;SDS011;48199;49.138;7.414;2022-08-30T06:34:58;8.02;;;4.15;;
62202;SDS011;48199;49.138;7.414;2022-08-30T06:37:23;11.18;;;4.70;;
62202;SDS011;48199;49.138;7.414;2022-08-30T06:39:49;10.45;;;3.85;;
62202;SDS011;48199;49.138;7.414;2022-08-30T06:42:14;11.35;;;4.15;;
62202;SDS011;48199;49.138;7.414;2022-08-30T06:44:40;11.27;;;4.53;;
62202;SDS011;48199;49.138;7.414;2022-08-30T06:47:05;11.10;;;4.10;;
62202;SDS011;48199;49.138;7.414;2022-08-30T06:49:31;17.17;;;4.75;;
62202;SDS011;48199;49.138;7.414;2022-08-30T06:51:56;9.18;;;3.70;;
62202;SDS011;48199;49.138;7.414;2022-08-30T06:54:22;10.93;;;5.00;;
62202;SDS011;48199;49.138;7.414;2022-08-30T06:56:47;11.48;;;3.97;;
62202;SDS011;48199;49.138;7.414;2022-08-30T06:59:13;9.95;;;4.10;;
62202;SDS011;48199;49.138;7.414;2022-08-30T07:01:38;11.10;;;3.67;;
62202;SDS011;48199;49.138;7.414;2022-08-30T07:04:03;13.48;;;4.03;;
62202;SDS011;48199;49.138;7.414;2022-08-30T07:06:29;12.30;;;3.95;;
62202;SDS011;48199;49.138;7.414;2022-08-30T07:08:54;12.93;;;3.53;;
62202;SDS011;48199;49.138;7.414;2022-08-30T07:11:25;6.70;;;3.97;;
62202;SDS011;48199;49.138;7.414;2022-08-30T07:13:51;7.88;;;3.80;;
62202;SDS011;48199;49.138;7.414;2022-08-30T07:16:17;11.68;;;3.95;;
62202;SDS011;48199;49.138;7.414;2022-08-30T07:18:42;10.15;;;3.97;;
62202;SDS011;48199;49.138;7.414;2022-08-30T07:21:23;9.85;;;4.60;;
62202;SDS011;48199;49.138;7.414;2022-08-30T07:23:54;17.27;;;4.13;;
62202;SDS011;48199;49.138;7.414;2022-08-30T07:26:25;11.55;;;4.32;;
62202;SDS011;48199;49.138;7.414;2022-08-30T07:28:53;9.75;;;3.80;;
62202;SDS011;48199;49.138;7.414;2022-08-30T07:31:19;8.80;;;3.75;;
62202;SDS011;48199;49.138;7.414;2022-08-30T07:33:45;10.30;;;4.20;;
62202;SDS011;48199;49.138;7.414;2022-08-30T07:36:11;20.35;;;4.15;;
62202;SDS011;48199;49.138;7.414;2022-08-30T07:38:37;13.32;;;3.97;;
62202;SDS011;48199;49.138;7.414;2022-08-30T07:41:03;11.55;;;4.50;;
62202;SDS011;48199;49.138;7.414;2022-08-30T07:43:30;11.80;;;4.18;;
62202;SDS011;48199;49.138;7.414;2022-08-30T07:46:01;11.00;;;4.80;;
62202;SDS011;48199;49.138;7.414;2022-08-30T07:48:31;9.65;;;4.00;;
62202;SDS011;48199;49.138;7.414;2022-08-30T07:50:57;19.10;;;4.38;;
62202;SDS011;48199;49.138;7.414;2022-08-30T07:53:22;14.98;;;4.57;;
62202;SDS011;48199;49.138;7.414;2022-08-30T07:55:48;9.82;;;4.30;;
62202;SDS011;48199;49.138;7.414;2022-08-30T07:58:13;13.25;;;4.22;;
62202;SDS011;48199;49.138;7.414;2022-08-30T08:00:39;9.88;;;4.05;;
62202;SDS011;48199;49.138;7.414;2022-08-30T08:03:05;9.70;;;4.25;;
62202;SDS011;48199;49.138;7.414;2022-08-30T08:05:35;12.95;;;4.43;;
62202;SDS011;48199;49.138;7.414;2022-08-30T08:08:05;10.02;;;4.28;;
62202;SDS011;48199;49.138;7.414;2022-08-30T08:10:30;11.98;;;4.68;;
62202;SDS011;48199;49.138;7.414;2022-08-30T08:12:56;16.48;;;5.07;;
62202;SDS011;48199;49.138;7.414;2022-08-30T08:15:22;13.07;;;4.40;;
62202;SDS011;48199;49.138;7.414;2022-08-30T08:17:47;9.48;;;4.85;;
62202;SDS011;48199;49.138;7.414;2022-08-30T08:20:12;14.98;;;4.85;;
62202;SDS011;48199;49.138;7.414;2022-08-30T08:22:38;9.43;;;4.68;;
62202;SDS011;48199;49.138;7.414;2022-08-30T08:25:03;10.90;;;4.78;;
62202;SDS011;48199;49.138;7.414;2022-08-30T08:27:29;9.35;;;4.45;;
62202;SDS011;48199;49.138;7.414;2022-08-30T08:29:54;12.70;;;4.75;;
62202;SDS011;48199;49.138;7.414;2022-08-30T08:32:20;18.35;;;5.38;;
62202;SDS011;48199;49.138;7.414;2022-08-30T08:34:45;17.23;;;5.03;;
62202;SDS011;48199;49.138;7.414;2022-08-30T08:37:11;9.40;;;4.50;;
62202;SDS011;48199;49.138;7.414;2022-08-30T08:39:36;11.93;;;5.20;;
62202;SDS011;48199;49.138;7.414;2022-08-30T08:47:19;11.15;;;5.50;;
62202;SDS011;48199;49.138;7.414;2022-08-30T08:50:03;7.47;;;4.80;;
62202;SDS011;48199;49.138;7.414;2022-08-30T08:52:36;11.57;;;5.20;;
62202;SDS011;48199;49.138;7.414;2022-08-30T08:55:31;9.52;;;5.22;;
62202;SDS011;48199;49.138;7.414;2022-08-30T08:57:56;12.60;;;5.90;;
62202;SDS011;48199;49.138;7.414;2022-08-30T09:00:22;13.05;;;5.60;;
62202;SDS011;48199;49.138;7.414;2022-08-30T09:03:01;10.65;;;5.47;;
62202;SDS011;48199;49.138;7.414;2022-08-30T09:05:30;10.75;;;5.10;;
62202;SDS011;48199;49.138;7.414;2022-08-30T09:08:02;13.00;;;6.05;;
62202;SDS011;48199;49.138;7.414;2022-08-30T09:10:30;11.75;;;5.70;;
62202;SDS011;48199;49.138;7.414;2022-08-30T09:12:57;9.82;;;5.13;;
62202;SDS011;48199;49.138;7.414;2022-08-30T09:15:24;19.02;;;6.32;;
62202;SDS011;48199;49.138;7.414;2022-08-30T09:17:53;12.13;;;5.97;;
62202;SDS011;48199;49.138;7.414;2022-08-30T09:22:51;14.93;;;6.30;;
62202;SDS011;48199;49.138;7.414;2022-08-30T09:25:21;9.90;;;5.53;;
62202;SDS011;48199;49.138;7.414;2022-08-30T09:27:50;8.60;;;5.95;;
62202;SDS011;48199;49.138;7.414;2022-08-30T09:33:18;12.35;;;6.30;;
62202;SDS011;48199;49.138;7.414;2022-08-30T09:35:46;15.05;;;6.78;;
62202;SDS011;48199;49.138;7.414;2022-08-30T09:38:17;17.33;;;6.45;;
62202;SDS011;48199;49.138;7.414;2022-08-30T09:40:48;15.00;;;6.40;;
62202;SDS011;48199;49.138;7.414;2022-08-30T09:48:29;14.05;;;6.57;;
62202;SDS011;48199;49.138;7.414;2022-08-30T09:53:41;13.88;;;6.00;;
62202;SDS011;48199;49.138;7.414;2022-08-30T09:56:19;12.48;;;6.22;;
62202;SDS011;48199;49.138;7.414;2022-08-30T09:58:54;9.20;;;5.95;;
62202;SDS011;48199;49.138;7.414;2022-08-30T10:01:52;9.75;;;5.68;;
62202;SDS011;48199;49.138;7.414;2022-08-30T10:04:37;12.52;;;6.03;;
62202;SDS011;48199;49.138;7.414;2022-08-30T10:12:35;8.18;;;5.55;;
62202;SDS011;48199;49.138;7.414;2022-08-30T10:15:20;8.77;;;5.53;;
62202;SDS011;48199;49.138;7.414;2022-08-30T10:20:57;10.63;;;5.60;;
62202;SDS011;48199;49.138;7.414;2022-08-30T10:23:47;9.02;;;5.60;;
62202;SDS011;48199;49.138;7.414;2022-08-30T10:29:02;11.48;;;5.47;;
62202;SDS011;48199;49.138;7.414;2022-08-30T10:34:15;11.15;;;6.05;;
62202;SDS011;48199;49.138;7.414;2022-08-30T10:36:47;11.35;;;5.50;;
62202;SDS011;48199;49.138;7.414;2022-08-30T10:39:21;10.32;;;6.32;;
62202;SDS011;48199;49.138;7.414;2022-08-30T10:42:32;12.38;;;6.28;;
62202;SDS011;48199;49.138;7.414;2022-08-30T10:44:45;14.43;;;5.97;;
62202;SDS011;48199;49.138;7.414;2022-08-30T10:50:06;11.98;;;6.43;;
62202;SDS011;48199;49.138;7.414;2022-08-30T10:52:40;13.98;;;5.70;;
62202;SDS011;48199;49.138;7.414;2022-08-30T10:55:16;10.48;;;6.03;;
62202;SDS011;48199;49.138;7.414;2022-08-30T10:57:46;10.27;;;5.93;;
62202;SDS011;48199;49.138;7.414;2022-08-30T11:00:13;12.73;;;6.00;;
62202;SDS011;48199;49.138;7.414;2022-08-30T11:05:44;11.38;;;6.00;;
62202;SDS011;48199;49.138;7.414;2022-08-30T11:08:27;9.18;;;6.50;;
62202;SDS011;48199;49.138;7.414;2022-08-30T11:13:46;11.50;;;6.00;;
62202;SDS011;48199;49.138;7.414;2022-08-30T11:16:13;9.55;;;6.15;;
62202;SDS011;48199;49.138;7.414;2022-08-30T11:21:20;10.98;;;5.30;;
62202;SDS011;48199;49.138;7.414;2022-08-30T11:29:14;9.65;;;6.25;;
62202;SDS011;48199;49.138;7.414;2022-08-30T11:32:17;12.75;;;5.93;;
62202;SDS011;48199;49.138;7.414;2022-08-30T11:40:01;11.52;;;6.07;;
62202;SDS011;48199;49.138;7.414;2022-08-30T11:47:59;12.25;;;6.10;;
62202;SDS011;48199;49.138;7.414;2022-08-30T11:53:32;9.80;;;6.18;;
62202;SDS011;48199;49.138;7.414;2022-08-30T11:58:48;10.05;;;6.07;;
62202;SDS011;48199;49.138;7.414;2022-08-30T12:03:54;10.50;;;6.32;;
62202;SDS011;48199;49.138;7.414;2022-08-30T12:09:04;11.43;;;6.03;;
62202;SDS011;48199;49.138;7.414;2022-08-30T12:13:57;13.85;;;6.07;;
62202;SDS011;48199;49.138;7.414;2022-08-30T12:18:56;10.68;;;6.18;;
62202;SDS011;48199;49.138;7.414;2022-08-30T12:21:34;10.50;;;6.03;;
62202;SDS011;48199;49.138;7.414;2022-08-30T12:24:03;11.15;;;6.00;;
62202;SDS011;48199;49.138;7.414;2022-08-30T12:26:49;12.05;;;6.05;;
62202;SDS011;48199;49.138;7.414;2022-08-30T12:29:17;9.82;;;5.72;;
62202;SDS011;48199;49.138;7.414;2022-08-30T12:36:53;11.88;;;6.55;;
62202;SDS011;48199;49.138;7.414;2022-08-30T12:39:24;11.67;;;5.80;;
62202;SDS011;48199;49.138;7.414;2022-08-30T12:44:47;15.10;;;6.15;;
62202;SDS011;48199;49.138;7.414;2022-08-30T12:47:19;10.27;;;5.10;;
62202;SDS011;48199;49.138;7.414;2022-08-30T12:49:49;13.13;;;6.47;;
62202;SDS011;48199;49.138;7.414;2022-08-30T12:52:28;11.82;;;6.38;;
62202;SDS011;48199;49.138;7.414;2022-08-30T12:55:14;9.45;;;5.93;;
62202;SDS011;48199;49.138;7.414;2022-08-30T13:00:27;10.25;;;5.82;;
62202;SDS011;48199;49.138;7.414;2022-08-30T13:02:59;9.45;;;6.20;;
62202;SDS011;48199;49.138;7.414;2022-08-30T13:05:28;15.20;;;6.38;;
62202;SDS011;48199;49.138;7.414;2022-08-30T13:08:20;10.30;;;6.28;;
62202;SDS011;48199;49.138;7.414;2022-08-30T13:11:30;8.23;;;5.55;;
62202;SDS011;48199;49.138;7.414;2022-08-30T13:13:56;11.43;;;6.28;;
62202;SDS011;48199;49.138;7.414;2022-08-30T13:16:57;13.77;;;5.88;;
62202;SDS011;48199;49.138;7.414;2022-08-30T13:19:44;9.95;;;6.10;;
62202;SDS011;48199;49.138;7.414;2022-08-30T13:22:22;12.73;;;6.65;;
62202;SDS011;48199;49.138;7.414;2022-08-30T13:24:53;13.02;;;5.85;;
62202;SDS011;48199;49.138;7.414;2022-08-30T13:27:19;11.55;;;6.20;;
62202;SDS011;48199;49.138;7.414;2022-08-30T13:29:45;9.48;;;6.00;;
62202;SDS011;48199;49.138;7.414;2022-08-30T13:32:10;10.63;;;5.97;;
62202;SDS011;48199;49.138;7.414;2022-08-30T13:34:37;9.02;;;5.43;;
62202;SDS011;48199;49.138;7.414;2022-08-30T13:37:03;18.90;;;6.43;;
62202;SDS011;48199;49.138;7.414;2022-08-30T13:39:29;11.90;;;6.07;;
62202;SDS011;48199;49.138;7.414;2022-08-30T13:41:55;13.45;;;6.25;;
62202;SDS011;48199;49.138;7.414;2022-08-30T13:44:20;12.45;;;5.82;;
62202;SDS011;48199;49.138;7.414;2022-08-30T13:46:46;14.05;;;5.93;;
62202;SDS011;48199;49.138;7.414;2022-08-30T13:49:16;10.25;;;6.15;;
62202;SDS011;48199;49.138;7.414;2022-08-30T13:51:43;10.25;;;6.15;;
62202;SDS011;48199;49.138;7.414;2022-08-30T13:54:10;8.68;;;5.68;;
62202;SDS011;48199;49.138;7.414;2022-08-30T13:56:35;10.82;;;6.28;;
62202;SDS011;48199;49.138;7.414;2022-08-30T13:59:00;11.07;;;5.78;;
62202;SDS011;48199;49.138;7.414;2022-08-30T14:01:27;11.05;;;6.68;;
62202;SDS011;48199;49.138;7.414;2022-08-30T14:03:52;10.63;;;6.28;;
62202;SDS011;48199;49.138;7.414;2022-08-30T14:06:19;12.55;;;6.25;;
62202;SDS011;48199;49.138;7.414;2022-08-30T14:08:45;10.70;;;6.05;;
62202;SDS011;48199;49.138;7.414;2022-08-30T14:11:10;11.95;;;6.60;;
62202;SDS011;48199;49.138;7.414;2022-08-30T14:13:37;9.13;;;5.60;;
62202;SDS011;48199;49.138;7.414;2022-08-30T14:16:05;16.15;;;6.50;;
62202;SDS011;48199;49.138;7.414;2022-08-30T14:18:31;10.13;;;6.18;;
62202;SDS011;48199;49.138;7.414;2022-08-30T14:20:57;9.45;;;5.60;;
62202;SDS011;48199;49.138;7.414;2022-08-30T14:23:24;8.32;;;5.63;;
62202;SDS011;48199;49.138;7.414;2022-08-30T14:25:49;11.70;;;5.50;;
62202;SDS011;48199;49.138;7.414;2022-08-30T14:28:16;14.32;;;5.93;;
62202;SDS011;48199;49.138;7.414;2022-08-30T14:30:41;12.18;;;6.07;;
62202;SDS011;48199;49.138;7.414;2022-08-30T14:33:06;8.82;;;6.00;;
62202;SDS011;48199;49.138;7.414;2022-08-30T14:35:32;12.90;;;5.70;;
62202;SDS011;48199;49.138;7.414;2022-08-30T14:37:57;11.82;;;6.43;;
62202;SDS011;48199;49.138;7.414;2022-08-30T14:40:23;14.32;;;6.10;;
62202;SDS011;48199;49.138;7.414;2022-08-30T14:42:48;12.50;;;5.93;;
62202;SDS011;48199;49.138;7.414;2022-08-30T14:45:14;13.18;;;6.70;;
62202;SDS011;48199;49.138;7.414;2022-08-30T14:47:39;10.13;;;6.00;;
62202;SDS011;48199;49.138;7.414;2022-08-30T14:50:05;12.20;;;6.63;;
62202;SDS011;48199;49.138;7.414;2022-08-30T14:52:31;13.88;;;6.43;;
62202;SDS011;48199;49.138;7.414;2022-08-30T14:54:57;11.35;;;6.15;;
62202;SDS011;48199;49.138;7.414;2022-08-30T14:57:24;17.05;;;6.25;;
62202;SDS011;48199;49.138;7.414;2022-08-30T14:59:50;9.90;;;6.07;;
62202;SDS011;48199;49.138;7.414;2022-08-30T15:02:15;13.93;;;5.68;;
62202;SDS011;48199;49.138;7.414;2022-08-30T15:04:41;13.10;;;5.53;;
62202;SDS011;48199;49.138;7.414;2022-08-30T15:07:07;15.10;;;6.13;;
62202;SDS011;48199;49.138;7.414;2022-08-30T15:09:32;12.88;;;6.57;;
62202;SDS011;48199;49.138;7.414;2022-08-30T15:11:58;12.23;;;6.38;;
62202;SDS011;48199;49.138;7.414;2022-08-30T15:14:26;13.25;;;6.13;;
62202;SDS011;48199;49.138;7.414;2022-08-30T15:16:53;17.70;;;6.22;;
62202;SDS011;48199;49.138;7.414;2022-08-30T15:19:19;12.43;;;5.75;;
62202;SDS011;48199;49.138;7.414;2022-08-30T15:21:45;11.75;;;6.05;;
62202;SDS011;48199;49.138;7.414;2022-08-30T15:24:19;13.73;;;6.35;;
62202;SDS011;48199;49.138;7.414;2022-08-30T15:26:46;11.25;;;6.00;;
62202;SDS011;48199;49.138;7.414;2022-08-30T15:29:13;8.27;;;5.72;;
62202;SDS011;48199;49.138;7.414;2022-08-30T15:31:41;10.45;;;6.03;;
62202;SDS011;48199;49.138;7.414;2022-08-30T15:34:08;13.90;;;6.32;;
62202;SDS011;48199;49.138;7.414;2022-08-30T15:36:35;10.95;;;5.82;;
62202;SDS011;48199;49.138;7.414;2022-08-30T15:39:01;11.90;;;5.78;;
62202;SDS011;48199;49.138;7.414;2022-08-30T15:41:27;16.10;;;6.93;;
62202;SDS011;48199;49.138;7.414;2022-08-30T15:43:54;13.48;;;6.10;;
62202;SDS011;48199;49.138;7.414;2022-08-30T15:46:39;9.40;;;6.00;;
62202;SDS011;48199;49.138;7.414;2022-08-30T15:49:09;12.00;;;6.13;;
62202;SDS011;48199;49.138;7.414;2022-08-30T15:51:40;8.68;;;5.70;;
62202;SDS011;48199;49.138;7.414;2022-08-30T15:54:07;10.93;;;6.25;;
62202;SDS011;48199;49.138;7.414;2022-08-30T15:56:34;14.63;;;6.13;;
62202;SDS011;48199;49.138;7.414;2022-08-30T15:58:59;15.75;;;6.45;;
62202;SDS011;48199;49.138;7.414;2022-08-30T16:01:25;15.38;;;5.80;;
62202;SDS011;48199;49.138;7.414;2022-08-30T16:03:50;11.15;;;5.45;;
62202;SDS011;48199;49.138;7.414;2022-08-30T16:06:17;11.32;;;5.93;;
62202;SDS011;48199;49.138;7.414;2022-08-30T16:08:48;13.52;;;6.10;;
62202;SDS011;48199;49.138;7.414;2022-08-30T16:11:15;11.80;;;6.35;;
62202;SDS011;48199;49.138;7.414;2022-08-30T16:13:42;12.95;;;5.68;;